Time;durP1;ratioP1;P1;durP2;ratioP2;P2;SDS_P1;SDS_P2;PMS_P1;PMS_P2;Temp;Humidity;BMP_temperature;BMP_pressure;BME280_temperature;BME280_humidity;BME280_pressure;Samples;Min_cycle;Max_cycle;Signal;HPM_P1;HPM_P2
2023/07/06 00:02:18;;;;;;;7.83;3.93;;;15.30;99.90;;;14.56;75.60;100859.91;5053450;28;20297;-77
2023/07/06 00:04:50;;;;;;;4.63;3.57;;;15.10;99.90;;;14.59;75.78;100869.47;5053013;28;20244;-77
2023/07/06 00:07:22;;;;;;;5.60;3.50;;;15.10;99.90;;;14.51;75.97;100861.50;5053060;28;20281;-77
2023/07/06 00:09:54;;;;;;;6.87;4.27;;;15.10;99.90;;;14.49;76.46;100861.66;5053408;28;20211;-77
2023/07/06 00:12:29;;;;;;;5.07;3.70;;;15.00;99.90;;;14.49;76.50;100860.81;5053000;28;20286;-77
2023/07/06 00:15:03;;;;;;;6.13;3.80;;;15.00;99.90;;;14.43;76.43;100862.41;5052944;28;20226;-77
2023/07/06 00:17:35;;;;;;;6.20;4.10;;;15.00;99.90;;;14.42;76.43;100866.09;5053016;28;20190;-77
2023/07/06 00:20:12;;;;;;;6.37;3.93;;;15.00;99.90;;;14.42;76.66;100865.25;5052946;28;20190;-77
2023/07/06 00:22:44;;;;;;;5.53;3.67;;;14.90;99.90;;;14.41;76.37;100864.44;5052619;28;20649;-77
2023/07/06 00:25:16;;;;;;;4.90;3.53;;;15.00;99.90;;;14.53;74.83;100873.75;5052499;28;20261;-77
2023/07/06 00:27:48;;;;;;;6.33;3.70;;;15.00;99.90;;;14.40;76.46;100868.16;5052877;28;20289;-77
2023/07/06 00:30:30;;;;;;;5.37;3.87;;;15.20;99.90;;;14.48;75.78;100870.78;5052458;28;20301;-77
2023/07/06 00:33:02;;;;;;;4.70;3.90;;;15.00;99.90;;;14.49;76.47;100872.44;5052832;28;20229;-77
2023/07/06 00:35:34;;;;;;;5.43;3.50;;;15.10;99.90;;;14.42;76.74;100866.09;5052293;28;20791;-77
2023/07/06 00:38:09;;;;;;;4.40;3.10;;;15.00;99.90;;;14.42;76.77;100876.88;5053162;28;20238;-77
2023/07/06 00:40:44;;;;;;;4.80;3.57;;;14.90;99.90;;;14.44;76.43;100877.56;5052407;28;20191;-77
2023/07/06 00:43:20;;;;;;;4.33;3.43;;;14.90;99.90;;;14.39;77.06;100882.63;5052727;28;20281;-77
2023/07/06 00:45:59;;;;;;;4.10;3.43;;;14.90;99.90;;;14.40;77.00;100891.56;5054857;28;20240;-77
2023/07/06 00:48:37;;;;;;;6.53;3.50;;;15.00;99.90;;;14.34;77.32;100893.13;5056483;28;20206;-77
2023/07/06 00:51:16;;;;;;;5.97;3.63;;;14.90;99.90;;;14.31;76.84;100889.94;5055869;28;20680;-77
2023/07/06 00:53:56;;;;;;;7.97;3.70;;;14.90;99.90;;;14.30;76.97;100893.63;5056148;28;20248;-77
2023/07/06 00:56:36;;;;;;;4.70;3.33;;;14.80;99.90;;;14.20;77.71;100899.25;5056144;28;20196;-77
2023/07/06 00:59:12;;;;;;;3.67;3.03;;;14.80;99.90;;;14.23;77.89;100898.91;5056149;28;20236;-77
2023/07/06 01:01:48;;;;;;;4.03;3.47;;;14.90;99.90;;;14.27;77.43;100902.91;5056010;28;20265;-77
2023/07/06 01:04:23;;;;;;;4.07;3.50;;;14.90;99.90;;;14.24;77.61;100900.59;5055880;28;20271;-77
2023/07/06 01:06:57;;;;;;;4.03;3.50;;;14.80;99.90;;;14.31;77.39;100901.53;5056142;28;20190;-77
2023/07/06 01:09:30;;;;;;;3.43;3.13;;;14.90;99.90;;;14.25;77.93;100902.25;5055554;28;20652;-77
2023/07/06 01:12:03;;;;;;;3.50;3.20;;;14.90;99.90;;;14.31;77.42;100901.53;5055830;28;20225;-77
2023/07/06 01:14:35;;;;;;;4.37;3.53;;;14.90;99.90;;;14.29;77.48;100902.72;5055757;28;20283;-77
2023/07/06 01:17:16;;;;;;;3.90;3.50;;;14.90;99.90;;;14.30;77.98;100891.78;5055430;28;20720;-77
2023/07/06 01:20:20;;;;;;;4.87;3.40;;;14.90;99.90;;;14.31;78.03;100893.47;5055672;28;20199;-77
2023/07/06 01:23:18;;;;;;;4.37;3.40;;;14.90;99.90;;;14.32;77.99;100897.81;5045790;28;20292;-77
2023/07/06 01:26:12;;;;;;;5.00;3.50;;;14.90;99.90;;;14.39;77.66;100893.41;5055529;28;20232;-77
2023/07/06 01:29:16;;;;;;;5.40;3.53;;;14.90;99.90;;;14.39;78.07;100897.94;5055541;28;20194;-77
2023/07/06 01:31:55;;;;;;;5.20;3.70;;;14.90;99.90;;;14.37;77.59;100890.06;5055334;28;20295;-77
2023/07/06 01:34:36;;;;;;;4.10;3.47;;;14.90;99.90;;;14.40;78.08;100894.25;5055211;28;20234;-77
2023/07/06 01:37:15;;;;;;;4.57;4.03;;;15.00;99.90;;;14.39;78.19;100904.19;5055429;28;20217;-77
2023/07/06 01:39:48;;;;;;;4.63;3.50;;;14.90;99.90;;;14.46;77.57;100891.66;5055002;28;20284;-77
2023/07/06 01:42:34;;;;;;;6.07;3.70;;;15.10;99.90;;;14.47;78.25;100904.13;5055268;28;20193;-77
2023/07/06 01:45:12;;;;;;;6.73;3.73;;;15.00;99.90;;;14.51;78.10;100897.34;5054855;28;20317;-77
2023/07/06 01:47:50;;;;;;;3.70;3.40;;;15.00;99.90;;;14.39;78.91;100898.78;5054872;28;20190;-77
2023/07/06 01:50:32;;;;;;;4.03;3.63;;;14.90;99.90;;;14.29;79.03;100903.56;5055086;28;20248;-77
2023/07/06 01:53:17;;;;;;;5.37;3.50;;;14.90;99.90;;;14.26;79.55;100903.91;5055071;28;20281;-78
2023/07/06 01:56:01;;;;;;;4.50;3.80;;;15.00;99.90;;;14.23;79.46;100898.91;5054608;28;20245;-77
2023/07/06 01:58:43;;;;;;;3.80;3.23;;;14.80;99.90;;;14.29;78.89;100903.56;5054941;28;20237;-77
2023/07/06 02:01:22;;;;;;;4.40;3.50;;;14.80;99.90;;;14.25;79.81;100898.72;5054599;28;20667;-77
2023/07/06 02:03:56;;;;;;;5.77;4.30;;;14.90;99.90;;;14.21;79.88;100903.63;5054779;28;20648;-77
2023/07/06 02:06:29;;;;;;;4.93;3.63;;;14.80;99.90;;;14.22;79.97;100908.00;5055609;28;20268;-77
2023/07/06 02:09:02;;;;;;;5.47;3.80;;;14.80;99.90;;;14.25;79.63;100913.00;5057683;28;20186;-76
2023/07/06 02:11:35;;;;;;;7.27;4.00;;;14.90;99.90;;;14.20;80.12;100904.66;5054784;28;20240;-76
2023/07/06 02:14:06;;;;;;;5.17;4.20;;;14.80;99.90;;;14.17;79.88;100910.41;5054620;28;20200;-76
2023/07/06 02:16:38;;;;;;;4.40;4.00;;;14.70;99.90;;;14.25;80.23;100917.59;5054747;28;20193;-76
2023/07/06 02:19:11;;;;;;;4.43;4.03;;;14.80;99.90;;;14.26;80.03;100913.84;5054654;28;20225;-76
2023/07/06 02:21:43;;;;;;;5.37;3.70;;;14.80;99.90;;;14.31;79.79;100919.56;5054467;28;20191;-76
2023/07/06 02:24:15;;;;;;;5.80;4.57;;;14.80;99.90;;;14.30;80.30;100926.78;5054306;28;20257;-76
2023/07/06 02:26:49;;;;;;;6.93;4.77;;;14.90;99.90;;;14.31;80.06;100931.16;5054435;28;20278;-76
2023/07/06 02:29:22;;;;;;;6.67;4.30;;;14.90;99.90;;;14.34;79.91;100928.16;5054377;28;20214;-76
2023/07/06 02:31:54;;;;;;;6.03;4.83;;;14.90;99.90;;;14.33;80.03;100921.03;5054227;28;20297;-76
2023/07/06 02:34:28;;;;;;;5.40;4.73;;;14.90;99.90;;;14.36;79.96;100920.72;5054003;28;20242;-76
2023/07/06 02:37:00;;;;;;;4.80;4.30;;;14.90;99.90;;;14.34;79.84;100917.38;5054239;28;20289;-76
2023/07/06 02:39:32;;;;;;;7.73;4.90;;;14.90;99.90;;;14.32;80.27;100923.91;5054180;28;20232;-76
2023/07/06 02:42:04;;;;;;;5.67;4.57;;;14.90;99.90;;;14.38;79.65;100921.38;5053822;28;20664;-76
2023/07/06 02:44:37;;;;;;;6.83;4.30;;;14.90;99.90;;;14.40;79.24;100915.81;5053975;28;20233;-76
2023/07/06 02:47:10;;;;;;;6.17;4.90;;;15.00;99.90;;;14.36;79.95;100919.88;5054092;28;20190;-77
2023/07/06 02:49:43;;;;;;;5.33;4.83;;;15.00;99.90;;;14.37;80.34;100917.00;5054008;28;20225;-77
2023/07/06 02:52:15;;;;;;;6.60;4.83;;;14.90;99.90;;;14.39;79.93;100916.81;5053604;28;20683;-77
2023/07/06 02:54:48;;;;;;;5.67;5.17;;;14.90;99.90;;;14.35;80.12;100920.91;5053565;28;20637;-77
2023/07/06 02:57:20;;;;;;;9.07;5.10;;;14.90;99.90;;;14.34;79.60;100925.44;5053924;28;20187;-77
2023/07/06 02:59:56;;;;;;;8.03;4.47;;;14.90;99.90;;;14.40;79.63;100923.88;5053504;28;20606;-77
2023/07/06 03:02:27;;;;;;;6.50;4.83;;;14.90;99.90;;;14.43;79.32;100931.59;5053813;28;20221;-77
2023/07/06 03:05:04;;;;;;;7.00;4.73;;;15.10;99.90;;;14.42;79.51;100930.75;5053676;28;20232;-77
2023/07/06 03:07:36;;;;;;;5.60;5.00;;;15.00;99.90;;;14.38;80.29;100934.84;5052972;28;20186;-77
2023/07/06 03:10:12;;;;;;;7.90;4.83;;;14.90;99.90;;;14.37;79.98;100927.78;5053342;28;20732;-77
2023/07/06 03:12:44;;;;;;;6.70;4.80;;;14.90;99.90;;;14.37;80.04;100929.63;5053560;28;20210;-77
2023/07/06 03:15:16;;;;;;;6.10;5.20;;;14.90;99.90;;;14.30;80.69;100934.88;5053517;28;20233;-77
2023/07/06 03:17:51;;;;;;;5.37;4.87;;;14.90;99.90;;;14.29;79.98;100933.19;5053529;28;20702;-77
2023/07/06 03:20:25;;;;;;;7.67;4.03;;;14.80;99.90;;;14.35;78.95;100934.38;5053552;28;20194;-77
2023/07/06 03:22:57;;;;;;;5.57;4.77;;;14.90;99.90;;;14.29;79.93;100935.88;5053488;28;20193;-77
2023/07/06 03:25:30;;;;;;;5.27;4.77;;;14.90;99.90;;;14.23;80.56;100942.00;5053021;28;20257;-77
2023/07/06 03:28:02;;;;;;;5.40;4.90;;;14.70;99.90;;;14.09;81.28;100938.22;5053429;28;20225;-77
2023/07/06 03:30:35;;;;;;;8.13;4.77;;;14.70;99.90;;;14.12;81.38;100939.69;5053412;28;20194;-77
2023/07/06 03:33:07;;;;;;;7.17;4.90;;;14.60;99.90;;;14.09;81.36;100945.44;5052954;28;20301;-77
2023/07/06 03:35:43;;;;;;;6.20;4.80;;;14.60;99.90;;;14.11;80.84;100943.41;5052868;28;20240;-77
2023/07/06 03:38:15;;;;;;;5.37;4.87;;;14.70;99.90;;;14.07;81.42;100947.50;5053117;28;20643;-76
2023/07/06 03:40:49;;;;;;;6.30;5.10;;;14.70;99.90;;;14.03;81.70;100955.09;5053336;28;20197;-76
2023/07/06 03:43:22;;;;;;;5.60;5.00;;;14.70;99.90;;;13.95;81.54;100948.88;5053299;28;20189;-76
2023/07/06 03:45:53;;;;;;;6.83;4.87;;;14.60;99.90;;;13.91;81.86;100961.03;5053224;28;20313;-76
2023/07/06 03:48:26;;;;;;;5.57;5.03;;;14.40;99.90;;;13.97;81.38;100954.94;5053489;28;20210;-76
2023/07/06 03:51:03;;;;;;;8.00;5.03;;;14.50;99.90;;;13.96;81.56;100964.03;5053169;28;20200;-77
2023/07/06 03:53:36;;;;;;;5.53;4.63;;;14.50;99.90;;;14.00;81.42;100963.50;5053138;28;20217;-77
2023/07/06 03:56:10;;;;;;;6.10;5.03;;;14.50;99.90;;;13.89;81.93;100963.06;5054221;28;20233;-77
2023/07/06 03:58:42;;;;;;;7.00;5.40;;;14.40;99.90;;;13.86;81.61;100966.94;5053167;28;20194;-77
2023/07/06 04:01:14;;;;;;;6.60;5.17;;;14.40;99.90;;;13.87;81.91;100959.72;5052909;28;20731;-77
2023/07/06 04:03:46;;;;;;;5.80;5.20;;;14.40;99.90;;;13.83;81.66;100969.16;5053155;28;20245;-77
2023/07/06 04:06:19;;;;;;;5.40;4.87;;;14.40;99.90;;;13.88;81.92;100969.44;5052969;28;20226;-77
2023/07/06 04:08:52;;;;;;;7.27;5.07;;;14.50;99.90;;;13.87;81.92;100975.88;5053033;28;20191;-77
2023/07/06 04:11:24;;;;;;;6.87;5.10;;;14.40;99.90;;;13.84;81.60;100970.81;5053079;28;20281;-77
2023/07/06 04:13:57;;;;;;;6.80;5.60;;;14.40;99.90;;;13.83;81.66;100979.91;5052859;28;20306;-77
2023/07/06 04:16:30;;;;;;;6.23;5.30;;;14.40;99.90;;;13.89;81.52;100976.53;5053013;28;20643;-77
2023/07/06 04:19:02;;;;;;;7.00;5.87;;;14.40;99.90;;;13.87;81.93;100987.44;5052975;28;20191;-77
2023/07/06 04:21:36;;;;;;;6.50;5.90;;;14.40;99.90;;;13.83;81.90;100978.06;5056122;28;20640;-77
2023/07/06 04:24:08;;;;;;;9.37;6.60;;;14.40;99.90;;;13.89;81.61;100987.28;5056709;28;20194;-77
2023/07/06 04:26:40;;;;;;;6.87;6.00;;;14.40;99.90;;;13.87;81.88;100987.44;5056696;28;20191;-77
2023/07/06 04:29:12;;;;;;;7.90;6.93;;;14.50;99.90;;;13.90;81.33;100988.97;5056675;28;20281;-77
2023/07/06 04:31:46;;;;;;;6.70;6.03;;;14.50;99.90;;;13.97;81.34;100984.56;5056584;28;20197;-77
2023/07/06 04:34:18;;;;;;;8.47;7.23;;;14.60;99.90;;;14.01;80.77;100986.72;5056075;28;20238;-77
2023/07/06 04:36:51;;;;;;;8.37;7.20;;;14.60;99.90;;;13.93;81.68;100991.31;5057371;28;20276;-77
2023/07/06 04:39:23;;;;;;;8.90;7.37;;;14.50;99.90;;;13.94;81.23;100990.31;5056501;28;20281;-77
2023/07/06 04:41:55;;;;;;;9.13;7.80;;;14.50;99.90;;;13.95;81.35;100995.50;5056463;28;20217;-77
2023/07/06 04:44:27;;;;;;;8.43;6.97;;;14.50;99.90;;;14.04;80.98;100990.91;5056319;28;20314;-77
2023/07/06 04:46:59;;;;;;;8.60;7.70;;;14.60;99.90;;;14.05;80.88;100990.72;5056366;28;20201;-77
2023/07/06 04:49:31;;;;;;;9.43;7.97;;;14.70;99.90;;;14.10;81.38;101000.97;5056353;28;20190;-77
2023/07/06 04:52:04;;;;;;;12.07;8.53;;;14.70;99.90;;;14.11;81.20;100994.56;5055899;28;20285;-77
2023/07/06 04:54:36;;;;;;;10.40;9.30;;;14.70;99.90;;;14.12;81.35;100997.09;5055827;28;20818;-77
2023/07/06 04:57:10;;;;;;;11.10;9.53;;;14.70;99.90;;;14.13;81.31;101000.63;5056146;28;20229;-77
2023/07/06 04:59:42;;;;;;;11.77;10.00;;;14.70;99.90;;;14.10;80.57;101001.81;5056104;28;20193;-77
2023/07/06 05:02:14;;;;;;;13.10;9.70;;;14.70;99.90;;;14.11;82.08;101002.63;5055771;28;20197;-77
2023/07/06 05:04:48;;;;;;;9.97;8.97;;;14.80;99.90;;;14.17;81.38;101008.19;5055939;28;20313;-77
2023/07/06 05:07:23;;;;;;;11.23;8.73;;;14.80;99.90;;;14.17;81.09;101007.34;5055970;28;20244;-77
2023/07/06 05:09:55;;;;;;;12.50;10.47;;;14.80;99.90;;;14.17;81.83;101007.34;5055944;28;20289;-77
2023/07/06 05:12:27;;;;;;;12.93;9.57;;;14.80;99.90;;;14.21;81.46;101003.28;5055800;28;20237;-77
2023/07/06 05:14:59;;;;;;;11.53;10.43;;;14.80;99.90;;;14.22;81.95;101004.94;5055670;28;20226;-78
2023/07/06 05:17:31;;;;;;;13.80;10.60;;;14.80;99.90;;;14.20;82.20;101006.97;5055773;28;20221;-77
2023/07/06 05:20:03;;;;;;;10.43;9.43;;;14.80;99.90;;;14.22;81.98;101005.78;5055734;28;20190;-77
2023/07/06 05:22:39;;;;;;;11.70;10.10;;;14.80;99.90;;;14.26;81.79;101000.88;5055681;28;20196;-68
2023/07/06 05:25:14;;;;;;;11.13;9.60;;;14.90;99.90;;;14.33;81.30;101011.78;5055649;28;20288;-75
2023/07/06 05:27:46;;;;;;;11.87;9.97;;;15.00;99.90;;;14.35;81.75;101005.22;5055313;28;20591;-75
2023/07/06 05:30:19;;;;;;;12.93;9.30;;;15.00;99.90;;;14.35;80.85;101004.41;5055309;28;20286;-75
2023/07/06 05:32:53;;;;;;;11.93;9.50;;;15.00;99.90;;;14.41;80.83;101009.91;5055503;28;20232;-76
2023/07/06 05:35:27;;;;;;;11.97;8.17;;;15.10;99.90;;;14.45;80.30;101013.09;5055197;28;20264;-75
2023/07/06 05:38:00;;;;;;;11.50;9.20;;;15.20;99.90;;;14.51;80.78;101015.06;5055500;28;20197;-75
2023/07/06 05:40:32;;;;;;;8.57;7.67;;;15.30;99.90;;;14.56;80.26;101018.88;5055107;28;20205;-75
2023/07/06 05:43:04;;;;;;;11.53;8.87;;;15.20;99.90;;;14.61;80.26;101027.28;5055384;28;20220;-75
2023/07/06 05:45:39;;;;;;;10.40;8.33;;;15.30;99.90;;;14.65;80.54;101017.81;5055209;28;20229;-75
2023/07/06 05:48:10;;;;;;;11.33;8.37;;;15.40;99.90;;;14.69;78.69;101023.69;5055184;28;20260;-75
2023/07/06 05:50:43;;;;;;;13.33;7.67;;;15.30;99.90;;;14.73;78.23;101026.88;5054937;28;20700;-75
2023/07/06 05:53:16;;;;;;;12.50;8.20;;;15.40;99.90;;;14.76;77.90;101029.19;5055110;28;20206;-76
2023/07/06 05:55:48;;;;;;;9.77;7.37;;;15.50;99.90;;;14.83;77.84;101030.16;5055075;28;20261;-76
2023/07/06 05:58:20;;;;;;;10.60;7.07;;;15.50;99.90;;;14.85;76.59;101028.09;5054749;28;20201;-75
2023/07/06 06:00:53;;;;;;;9.27;6.80;;;15.50;99.90;;;14.90;76.89;101036.47;5054988;28;20281;-75
2023/07/06 06:03:24;;;;;;;9.53;6.23;;;15.60;99.90;;;14.97;76.86;101037.44;5054613;28;20712;-75
2023/07/06 06:05:56;;;;;;;10.53;6.13;;;15.60;99.90;;;15.00;77.44;101035.22;5054608;28;20673;-75
2023/07/06 06:08:30;;;;;;;10.50;6.40;;;15.60;99.90;;;15.03;77.70;101029.47;5054913;28;20285;-75
2023/07/06 06:11:02;;;;;;;10.17;6.33;;;15.70;99.90;;;15.06;77.41;101034.50;5054839;28;20198;-75
2023/07/06 06:13:36;;;;;;;10.53;5.50;;;15.70;99.90;;;15.13;76.57;101037.31;5054784;28;20302;-75
2023/07/06 06:16:12;;;;;;;9.43;5.60;;;15.80;99.90;;;15.18;75.18;101040.28;5054620;28;20226;-75
2023/07/06 06:18:44;;;;;;;10.73;5.60;;;15.90;99.90;;;15.34;75.05;101045.53;5054710;28;20196;-75
2023/07/06 06:21:16;;;;;;;7.53;5.20;;;16.00;99.90;;;15.34;74.08;101050.94;5054652;28;20248;-75
2023/07/06 06:23:49;;;;;;;9.57;5.33;;;16.10;99.90;;;15.38;75.03;101049.50;5054568;28;20269;-75
2023/07/06 06:26:20;;;;;;;7.73;4.80;;;16.10;99.90;;;15.50;74.48;101055.34;5054524;28;20191;-75
2023/07/06 06:28:53;;;;;;;6.03;4.43;;;16.20;99.90;;;15.49;72.98;101057.19;5054186;28;20281;-75
2023/07/06 06:31:26;;;;;;;9.23;4.50;;;16.10;99.90;;;15.57;72.54;101058.97;5054406;28;20289;-75
2023/07/06 06:33:59;;;;;;;7.40;3.77;;;16.20;99.90;;;15.64;72.03;101063.47;5054029;28;20260;-75
2023/07/06 06:36:31;;;;;;;8.53;3.80;;;16.30;99.90;;;15.68;71.33;101066.63;5054353;28;20194;-76
2023/07/06 06:39:04;;;;;;;4.33;3.60;;;16.30;99.90;;;15.76;70.73;101071.91;5054253;28;20236;-76
2023/07/06 06:41:38;;;;;;;8.57;4.07;;;16.40;99.90;;;15.84;71.69;101079.09;5054220;28;20312;-76
2023/07/06 06:44:11;;;;;;;8.70;3.87;;;16.60;99.90;;;15.91;70.70;101080.03;5053442;28;20196;-76
2023/07/06 06:46:45;;;;;;;7.00;3.70;;;16.60;99.90;;;15.88;70.75;101081.25;5053958;28;20186;-75
2023/07/06 06:49:17;;;;;;;4.43;3.00;;;16.50;99.90;;;15.90;69.94;101086.44;5054063;28;20280;-75
2023/07/06 06:51:49;;;;;;;5.47;3.50;;;16.60;99.90;;;15.89;70.75;101087.50;5054010;28;20222;-75
2023/07/06 06:54:23;;;;;;;12.83;4.73;;;16.50;99.90;;;15.93;72.28;101088.78;5053960;28;20664;-75
2023/07/06 06:56:54;;;;;;;9.87;4.40;;;16.50;99.90;;;15.97;71.47;101084.69;5053889;28;20194;-75
2023/07/06 06:59:27;;;;;;;9.27;4.20;;;16.60;99.90;;;16.00;72.34;101087.84;5053574;28;20736;-75
2023/07/06 07:02:01;;;;;;;5.40;4.00;;;16.60;99.90;;;16.11;72.10;101087.38;5053916;28;20599;-75
2023/07/06 07:04:35;;;;;;;5.90;3.60;;;16.70;99.90;;;16.17;70.91;101096.56;5053418;28;20638;-75
2023/07/06 07:07:07;;;;;;;7.33;4.10;;;16.90;99.90;;;16.23;70.76;101099.38;5053817;28;20190;-75
2023/07/06 07:09:42;;;;;;;7.13;4.50;;;16.90;99.90;;;16.26;70.44;101094.63;5053723;28;20297;-75
2023/07/06 07:12:13;;;;;;;8.47;4.00;;;16.90;99.90;;;16.27;71.03;101094.41;5053676;28;20194;-75
2023/07/06 07:14:46;;;;;;;6.37;3.90;;;16.90;99.90;;;16.26;69.81;101095.47;5053531;28;20283;-75
2023/07/06 07:17:19;;;;;;;9.23;4.40;;;16.90;99.90;;;16.36;69.69;101103.28;5053249;28;20190;-75
2023/07/06 07:19:51;;;;;;;8.73;3.77;;;17.00;99.90;;;16.37;69.65;101097.66;5053295;28;20186;-74
2023/07/06 07:22:24;;;;;;;5.10;3.70;;;17.00;99.90;;;16.39;70.19;101095.63;5053598;28;20195;-63
2023/07/06 07:25:02;;;;;;;6.90;3.90;;;17.00;99.90;;;16.42;66.97;101106.06;5062074;28;20282;-81
2023/07/06 07:27:54;;;;;;;7.77;3.77;;;17.00;99.60;;;16.51;67.28;101099.50;5067042;28;20201;-81
2023/07/06 07:30:26;;;;;;;7.37;3.70;;;17.20;99.80;;;16.55;67.34;101095.44;5067229;28;20190;-81
2023/07/06 07:32:58;;;;;;;6.10;4.13;;;17.20;99.50;;;16.59;67.59;101104.84;5061951;28;20182;-80
2023/07/06 07:35:31;;;;;;;6.80;3.60;;;17.20;99.20;;;16.65;66.81;101104.06;5059814;28;20312;-80
2023/07/06 07:38:02;;;;;;;8.50;4.47;;;17.30;98.90;;;16.68;67.05;101106.38;5060887;28;20269;-80
2023/07/06 07:40:37;;;;;;;6.83;4.53;;;17.30;99.30;;;16.71;65.15;101103.28;5058909;28;20233;-80
2023/07/06 07:43:09;;;;;;;4.77;3.63;;;17.30;98.30;;;16.75;64.77;101105.66;5057901;28;20197;-80
2023/07/06 07:45:41;;;;;;;8.67;4.13;;;17.40;97.80;;;16.78;66.62;101110.66;5058262;28;20228;-81
2023/07/06 07:48:13;;;;;;;6.43;4.03;;;17.40;98.80;;;16.83;66.08;101103.63;5058897;28;20196;-81
2023/07/06 07:50:51;;;;;;;6.50;3.83;;;17.40;98.70;;;16.88;64.77;101092.25;5058299;28;20289;-80
2023/07/06 07:53:25;;;;;;;5.73;3.30;;;17.50;98.00;;;16.92;62.67;101102.47;5059274;28;20229;-80
2023/07/06 07:55:59;;;;;;;9.53;5.90;;;17.50;97.10;;;16.97;63.00;101099.19;5062475;28;20320;-80
2023/07/06 07:58:31;;;;;;;14.93;12.80;;;17.60;97.00;;;17.02;65.21;101094.06;5062876;28;20214;-80
2023/07/06 08:01:05;;;;;;;4.87;3.10;;;17.70;97.80;;;17.09;62.80;101094.94;5062737;28;20278;-80
2023/07/06 08:03:37;;;;;;;6.37;3.50;;;17.70;97.00;;;17.16;62.95;101101.25;5063609;28;20198;-81
2023/07/06 08:06:16;;;;;;;6.97;3.17;;;17.80;97.00;;;17.30;62.10;101103.03;5064333;28;20276;-80
2023/07/06 08:08:49;;;;;;;4.33;3.07;;;17.90;96.30;;;17.37;63.78;101103.94;5062514;28;20190;-80
2023/07/06 08:11:25;;;;;;;8.23;4.00;;;18.00;97.10;;;17.47;65.05;101107.13;5062470;28;20194;-80
2023/07/06 08:13:58;;;;;;;4.33;3.17;;;18.10;97.90;;;17.53;64.20;101105.53;5063418;28;20229;-79
2023/07/06 08:16:32;;;;;;;7.80;3.30;;;18.20;97.90;;;17.69;64.06;101111.53;5063827;28;20205;-80
2023/07/06 08:19:05;;;;;;;10.20;8.07;;;18.30;97.40;;;17.68;60.54;101120.66;5064255;28;20194;-80
2023/07/06 08:21:57;;;;;;;4.60;2.70;;;18.30;95.10;;;17.78;57.98;101117.59;5062938;28;20247;-81
2023/07/06 08:24:41;;;;;;;2.40;2.20;;;18.40;93.80;;;17.80;56.66;101122.84;5062552;28;20265;-79
2023/07/06 08:27:16;;;;;;;3.17;2.37;;;18.40;93.30;;;17.85;54.92;101123.91;5061666;28;20232;-80
2023/07/06 08:29:52;;;;;;;5.97;2.50;;;18.40;92.50;;;17.88;57.13;101125.38;5062903;28;20277;-80
2023/07/06 08:32:24;;;;;;;5.77;2.73;;;18.50;93.50;;;18.01;58.25;101120.91;5063136;28;20201;-80
2023/07/06 08:34:56;;;;;;;4.77;2.50;;;18.60;93.60;;;18.07;59.12;101125.53;5064432;28;20277;-80
2023/07/06 08:37:28;;;;;;;4.00;2.77;;;18.70;94.70;;;18.16;57.26;101123.47;5065599;28;20194;-81
2023/07/06 08:40:00;;;;;;;5.20;2.40;;;18.80;93.10;;;18.24;57.19;101129.56;5065651;28;20614;-80
2023/07/06 08:42:33;;;;;;;6.37;2.90;;;18.90;93.00;;;18.32;56.52;101133.16;5064041;28;20194;-79
2023/07/06 08:45:15;;;;;;;4.70;2.70;;;18.90;93.00;;;18.43;57.55;101129.84;5060556;28;20651;-79
2023/07/06 08:47:48;;;;;;;3.63;2.70;;;19.00;93.40;;;18.47;56.14;101136.53;5059552;28;20198;-79
2023/07/06 08:50:26;;;;;;;6.60;3.30;;;19.10;93.10;;;18.40;57.67;101133.81;5060396;28;20599;-80
2023/07/06 08:52:58;;;;;;;5.37;4.30;;;19.00;93.40;;;18.47;57.97;101131.97;5061591;28;20229;-79
2023/07/06 08:55:33;;;;;;;4.37;2.43;;;19.10;93.30;;;18.56;58.69;101124.53;5060737;28;20341;-79
2023/07/06 08:58:06;;;;;;;4.23;2.70;;;19.10;93.90;;;18.68;59.21;101126.44;5061780;28;20633;-80
2023/07/06 09:00:39;;;;;;;5.13;2.80;;;19.30;94.00;;;18.79;57.62;101135.03;5059711;28;20218;-80
2023/07/06 09:03:19;;;;;;;5.53;3.03;;;19.30;93.20;;;18.94;57.02;101130.28;5061824;28;20658;-80
2023/07/06 09:05:54;;;;;;;4.97;2.90;;;19.50;93.00;;;18.91;57.11;101139.66;5060782;28;20592;-80
2023/07/06 09:08:27;;;;;;;6.47;2.80;;;19.50;93.00;;;18.97;57.17;101140.72;5061103;28;20691;-80
2023/07/06 09:10:59;;;;;;;5.47;2.87;;;19.50;92.80;;;18.98;57.57;101140.50;5061531;28;20213;-80
2023/07/06 09:13:55;;;;;;;3.43;2.77;;;19.60;93.10;;;19.07;54.86;101141.16;5061656;28;20214;-80
2023/07/06 09:16:28;;;;;;;3.47;2.70;;;19.60;91.70;;;19.05;57.62;101132.38;5060284;28;20242;-80
2023/07/06 09:19:07;;;;;;;7.40;3.43;;;19.60;92.90;;;19.15;55.98;101135.53;5061006;28;20194;-79
2023/07/06 09:21:39;;;;;;;6.47;2.83;;;19.80;92.10;;;19.07;54.91;101141.16;5060163;28;20232;-79
2023/07/06 09:24:11;;;;;;;10.63;3.63;;;19.60;91.40;;;19.06;55.27;101142.19;5061275;28;20635;-79
2023/07/06 09:26:46;;;;;;;4.63;3.63;;;19.60;91.60;;;19.05;54.85;101137.81;5059289;28;20187;-79
2023/07/06 09:29:29;;;;;;;5.20;3.40;;;19.50;91.90;;;19.15;55.66;101143.66;5059069;28;20190;-79
2023/07/06 09:32:16;;;;;;;4.20;2.60;;;19.70;91.80;;;19.34;54.68;101140.16;5059299;28;20225;-80
2023/07/06 09:34:55;;;;;;;6.60;2.37;;;19.80;91.30;;;19.56;51.77;101144.34;5059835;28;20261;-80
2023/07/06 09:37:27;;;;;;;2.40;2.20;;;20.00;90.20;;;19.59;50.83;101134.94;5061156;28;20352;-80
2023/07/06 09:40:06;;;;;;;2.83;2.00;;;20.10;88.80;;;19.55;51.38;101140.00;5063992;28;20694;-80
2023/07/06 09:42:38;;;;;;;3.97;2.43;;;20.10;88.30;;;19.71;51.07;101142.28;5042077;28;20198;-80
2023/07/06 09:45:29;;;;;;;5.43;2.87;;;20.20;88.40;;;19.70;51.35;101146.03;5040865;28;20261;-80
2023/07/06 09:48:07;;;;;;;4.13;2.67;;;20.20;88.30;;;19.67;52.66;101148.31;5039686;28;20282;-80
2023/07/06 09:50:48;;;;;;;4.03;2.30;;;20.20;90.10;;;19.79;51.93;101149.38;5038741;28;20641;-80
2023/07/06 09:53:31;;;;;;;3.67;2.10;;;20.20;88.50;;;19.97;50.98;101143.25;5037836;28;20191;-80
2023/07/06 09:56:09;;;;;;;2.77;2.30;;;20.50;87.70;;;20.03;51.19;101142.44;5038640;28;20720;-81
2023/07/06 09:58:42;;;;;;;3.67;2.77;;;20.60;87.40;;;20.03;52.34;101147.88;5039406;28;20290;-80
2023/07/06 10:01:34;;;;;;;3.60;2.37;;;20.50;89.30;;;20.02;49.53;101147.03;5039853;28;20290;-80
2023/07/06 10:04:48;;;;;;;6.00;3.57;;;20.50;85.30;;;20.15;49.29;101132.56;5038919;28;20228;-81
2023/07/06 10:07:32;;;;;;;4.93;2.30;;;20.60;85.80;;;20.10;48.86;101137.81;5029970;28;20206;-80
2023/07/06 10:10:14;;;;;;;6.60;2.60;;;20.60;85.50;;;20.15;50.20;101138.84;5040720;28;20294;-81
2023/07/06 10:12:55;;;;;;;4.47;1.97;;;20.60;85.10;;;20.27;45.04;101140.91;5038600;28;20286;-81
2023/07/06 10:15:44;;;;;;;4.07;2.10;;;20.70;79.10;;;20.46;47.07;101140.88;5038470;28;20273;-80
2023/07/06 10:18:25;;;;;;;5.07;2.40;;;20.90;82.00;;;20.49;48.26;101134.16;5037285;28;20195;-79
2023/07/06 10:21:04;;;;;;;7.00;2.90;;;21.00;83.70;;;20.46;50.07;101135.44;5037786;28;20649;-79
2023/07/06 10:23:46;;;;;;;4.73;2.20;;;20.90;85.80;;;20.44;48.22;101139.44;5036562;28;20716;-79
2023/07/06 10:26:29;;;;;;;7.27;3.90;;;20.80;83.60;;;20.48;46.62;101135.22;5036578;28;20254;-79
2023/07/06 10:29:05;;;;;;;3.03;1.97;;;20.90;82.20;;;20.48;45.76;101141.47;5037005;28;20187;-79
2023/07/06 10:31:47;;;;;;;4.47;2.60;;;20.90;80.10;;;20.52;47.79;101140.00;5037213;28;20198;-81
2023/07/06 10:34:32;;;;;;;4.50;2.30;;;20.90;82.60;;;20.70;46.66;101142.03;5036116;28;20284;-78
2023/07/06 10:37:10;;;;;;;5.70;2.40;;;21.10;82.10;;;20.81;46.86;101145.94;5039747;28;20226;-81
2023/07/06 10:40:10;;;;;;;2.87;2.17;;;21.30;81.50;;;20.89;46.82;101140.25;5044545;28;20194;-81
2023/07/06 10:42:52;;;;;;;4.33;2.07;;;21.40;80.60;;;20.94;48.01;101134.97;5035713;28;20283;-79
2023/07/06 10:45:42;;;;;;;6.30;3.27;;;21.40;83.30;;;21.04;44.86;101147.06;5036219;28;20223;-79
2023/07/06 10:48:17;;;;;;;6.87;4.60;;;21.50;80.00;;;21.12;46.42;101129.66;5037048;28;20241;-81